Terminal Aerodrome Forecast
Issued by NWS

Home | Current Version | Previous Version | Text Only | Print | Product List | Glossary On
Versions: 1 2 3 4 5 6 7 8 9 10 11 12 13 14
000
FTUS43 KSGF 302300
TAFJLN
TAF
KJLN 302334Z 3100/3124 VRB03KT 4SM -SHRA BR SCT008 BKN015 OVC040
     FM310300 VRB03KT 5SM BR VCSH OVC020
     FM311200 VRB04KT 6SM -SHRA BR OVC025
     FM311800 VRB04KT P6SM SCT025 BKN040=

USA.gov is the U.S. government's official web portal to all federal, state and local government web resources and services.